createdAt,value
2023-02-16T00:03:17.520Z,12.57
2023-02-16T00:08:17.411Z,12.84
2023-02-16T00:13:17.406Z,12.57
2023-02-16T00:18:17.356Z,12.62
2023-02-16T00:23:17.301Z,12.68
2023-02-16T00:28:17.272Z,12.78
2023-02-16T00:33:17.256Z,12.62
2023-02-16T00:38:17.248Z,12.62
2023-02-16T00:43:17.226Z,12.68
2023-02-16T00:48:17.215Z,12.84
2023-02-16T00:53:17.200Z,12.84
2023-02-16T00:58:17.183Z,12.62
2023-02-16T01:03:17.187Z,12.73
2023-02-16T01:08:17.166Z,12.62
2023-02-16T01:13:17.143Z,12.57
2023-02-16T01:18:17.125Z,12.62
2023-02-16T01:23:17.103Z,12.62
2023-02-16T01:28:17.082Z,12.35
2023-02-16T01:33:17.069Z,12.57
2023-02-16T01:38:18.585Z,12.84
2023-02-16T01:43:17.020Z,12.57
2023-02-16T01:48:17.001Z,12.84
2023-02-16T01:53:16.979Z,12.89
2023-02-16T01:58:16.961Z,12.46
2023-02-16T02:03:16.953Z,12.46
2023-02-16T02:08:16.952Z,12.62
2023-02-16T02:13:16.929Z,12.62
2023-02-16T02:18:16.913Z,12.62
2023-02-16T02:23:16.856Z,12.41
2023-02-16T02:28:16.834Z,12.84
2023-02-16T02:33:16.820Z,12.57
2023-02-16T02:38:19.513Z,12.19
2023-02-16T02:43:16.753Z,11.82
2023-02-16T02:48:16.729Z,11.76
2023-02-16T02:53:16.702Z,11.76
2023-02-16T02:58:16.692Z,11.98
2023-02-16T03:03:16.629Z,11.98
2023-02-16T03:08:16.624Z,11.92
2023-02-16T03:13:16.545Z,11.87
2023-02-16T03:18:16.526Z,12.03
2023-02-16T03:23:16.499Z,11.98
2023-02-16T03:28:16.468Z,12.03
2023-02-16T03:33:16.438Z,11.87
2023-02-16T03:38:16.416Z,11.82
2023-02-16T03:43:16.399Z,11.82
2023-02-16T03:48:16.380Z,12.03
2023-02-16T03:53:18.220Z,12.25
2023-02-16T03:58:16.330Z,12.57
2023-02-16T04:03:16.308Z,11.98
2023-02-16T04:08:16.293Z,11.98
2023-02-16T04:13:16.275Z,12.03
2023-02-16T04:18:16.253Z,11.98
2023-02-16T04:23:16.262Z,12.19
2023-02-16T04:28:16.221Z,12.03
2023-02-16T04:33:16.190Z,12.25
2023-02-16T04:38:16.183Z,11.87
2023-02-16T04:43:16.159Z,12.14
2023-02-16T04:48:16.142Z,12.25
2023-02-16T04:53:16.147Z,11.87
2023-02-16T04:58:16.122Z,11.60
2023-02-16T05:03:16.095Z,11.98
2023-02-16T05:08:16.077Z,12.03
2023-02-16T05:13:16.048Z,11.92
2023-02-16T05:18:16.036Z,12.08
2023-02-16T05:23:15.977Z,12.03
2023-02-16T05:28:15.997Z,11.98
2023-02-16T05:33:15.906Z,12.14
2023-02-16T05:38:15.951Z,11.82
2023-02-16T05:43:15.877Z,11.92
2023-02-16T05:48:15.866Z,11.92
2023-02-16T05:53:15.835Z,11.98
2023-02-16T05:58:15.825Z,12.03
2023-02-16T06:03:15.807Z,12.19
2023-02-16T06:08:15.793Z,12.25
2023-02-16T06:13:15.769Z,12.08
2023-02-16T06:18:15.758Z,12.03
2023-02-16T06:23:15.740Z,12.41
2023-02-16T06:28:15.722Z,12.41
2023-02-16T06:33:15.704Z,12.41
2023-02-16T06:38:15.694Z,12.25
2023-02-16T06:43:15.682Z,12.41
2023-02-16T06:48:15.660Z,12.57
2023-02-16T06:53:18.296Z,12.46
2023-02-16T06:58:15.607Z,12.41
2023-02-16T07:03:15.629Z,12.03
2023-02-16T07:08:15.545Z,12.25
2023-02-16T07:13:15.517Z,12.41
2023-02-16T07:18:15.498Z,12.41
2023-02-16T07:23:15.502Z,12.62
2023-02-16T07:28:15.471Z,12.41
2023-02-16T07:33:15.459Z,12.62
2023-02-16T07:38:15.445Z,12.46
2023-02-16T07:43:15.466Z,12.41
2023-02-16T07:48:15.391Z,12.51
2023-02-16T07:53:15.375Z,12.41
2023-02-16T07:58:15.361Z,12.62
2023-02-16T08:03:15.474Z,12.41
2023-02-16T08:08:19.666Z,12.57
2023-02-16T08:19:14.821Z,12.08
2023-02-16T08:19:19.614Z,12.08
2023-02-16T08:24:20.576Z,12.08
2023-02-16T08:29:39.998Z,12.19
2023-02-16T08:34:23.488Z,12.03
2023-02-16T08:39:23.599Z,12.46
2023-02-16T08:44:23.697Z,12.57
2023-02-16T08:49:24.908Z,12.62
2023-02-16T08:54:19.421Z,12.46
2023-02-16T08:59:33.486Z,12.46
2023-02-16T09:04:23.778Z,12.62
2023-02-16T09:17:24.731Z,12.62
2023-02-16T09:17:29.516Z,12.57
2023-02-16T09:23:03.154Z,11.87
2023-02-16T09:27:32.332Z,12.57
2023-02-16T09:32:33.756Z,12.46
2023-02-16T09:37:31.727Z,12.62
2023-02-16T09:42:32.815Z,12.41
2023-02-16T09:47:31.028Z,12.46
2023-02-16T09:52:36.191Z,12.46
2023-02-16T09:57:34.090Z,12.78
2023-02-16T10:02:47.572Z,12.78
2023-02-16T10:15:42.626Z,12.41
2023-02-16T10:15:47.392Z,12.41
2023-02-16T10:20:49.045Z,12.41
2023-02-16T10:25:49.022Z,12.57
2023-02-16T10:30:51.806Z,12.57
2023-02-16T10:35:49.010Z,12.62
2023-02-16T10:41:03.790Z,12.78
2023-02-16T10:45:52.436Z,12.57
2023-02-16T10:50:51.710Z,12.84
2023-02-16T10:55:49.349Z,12.57
2023-02-16T13:15:54.679Z,11.98
2023-02-16T13:15:59.461Z,11.87
2023-02-16T13:21:02.138Z,11.82
2023-02-16T13:26:02.215Z,11.98
2023-02-16T13:31:03.878Z,11.66
2023-02-16T13:36:01.055Z,12.03
2023-02-16T13:41:01.062Z,11.92
2023-02-16T13:45:59.620Z,12.03
2023-02-16T13:51:02.411Z,11.87
2023-02-16T13:56:01.073Z,12.03
2023-02-16T14:01:01.117Z,11.71
2023-02-16T14:05:59.297Z,12.03
2023-02-16T14:11:01.066Z,11.92
2023-02-16T14:15:59.251Z,11.82
2023-02-16T14:20:59.062Z,11.87
2023-02-16T14:25:59.232Z,11.87
2023-02-16T14:30:59.140Z,11.87
2023-02-16T14:35:59.024Z,11.82
2023-02-16T14:40:58.990Z,11.82
2023-02-16T14:45:59.040Z,11.82
2023-02-16T14:50:58.994Z,12.03
2023-02-16T14:55:59.025Z,11.92
2023-02-16T15:01:01.528Z,11.87
2023-02-16T15:05:58.836Z,11.87
2023-02-16T15:11:02.028Z,11.66
2023-02-16T15:16:01.645Z,11.82
2023-02-16T15:21:03.248Z,11.82
2023-02-16T15:26:00.598Z,11.82
2023-02-16T15:31:00.695Z,11.92
2023-02-16T15:35:59.086Z,12.03
2023-02-16T15:41:00.597Z,11.87
2023-02-16T15:45:58.592Z,12.08
2023-02-16T15:51:00.104Z,11.87
2023-02-16T15:56:00.298Z,11.66
2023-02-16T16:00:58.478Z,11.82
2023-02-16T16:05:58.450Z,11.92
2023-02-16T16:10:58.410Z,11.98
2023-02-16T16:15:58.381Z,11.66
2023-02-16T16:20:58.354Z,11.87
2023-02-16T16:25:58.349Z,11.87
2023-02-16T16:30:58.349Z,12.08
2023-02-16T16:35:58.284Z,12.08
2023-02-16T16:40:58.268Z,11.82
2023-02-16T16:45:58.239Z,11.87
2023-02-16T16:50:58.215Z,11.82
2023-02-16T16:55:59.638Z,11.82
2023-02-16T17:00:58.145Z,12.03
2023-02-16T17:05:58.123Z,12.03
2023-02-16T17:10:58.105Z,12.03
2023-02-16T17:15:58.092Z,11.82
2023-02-16T17:20:58.080Z,12.03
2023-02-16T17:25:58.062Z,11.82
2023-02-16T17:30:58.045Z,11.92
2023-02-16T17:35:58.028Z,11.66
2023-02-16T17:40:58.022Z,11.98
2023-02-16T17:45:57.985Z,12.03
2023-02-16T17:50:57.941Z,11.87
2023-02-16T17:55:57.917Z,12.03
2023-02-16T18:00:57.940Z,11.82
2023-02-16T18:05:57.875Z,11.60
2023-02-16T18:10:57.830Z,11.87
2023-02-16T18:15:57.777Z,11.82
2023-02-16T18:20:57.776Z,11.66
2023-02-16T18:25:57.733Z,11.87
2023-02-16T18:30:57.742Z,11.82
2023-02-16T18:35:57.677Z,11.82
2023-02-16T18:40:57.616Z,11.76
2023-02-16T18:45:57.604Z,11.71
2023-02-16T18:50:57.568Z,11.98
2023-02-16T18:55:57.523Z,11.71
2023-02-16T19:00:57.513Z,11.76
2023-02-16T19:05:57.640Z,11.87
2023-02-16T19:10:57.397Z,11.87
2023-02-16T19:15:57.431Z,12.08
2023-02-16T19:20:57.363Z,11.82
2023-02-16T19:25:57.314Z,11.60
2023-02-16T19:30:57.370Z,11.87
2023-02-16T19:35:57.260Z,12.03
2023-02-16T19:40:57.298Z,11.87
2023-02-16T19:45:57.211Z,12.03
2023-02-16T19:50:57.163Z,11.82
2023-02-16T19:55:57.156Z,11.82
2023-02-16T20:00:57.108Z,11.87
2023-02-16T20:05:57.052Z,11.82
2023-02-16T20:10:57.030Z,11.66
2023-02-16T20:15:57.000Z,11.87
2023-02-16T20:20:56.943Z,11.66
2023-02-16T20:25:56.911Z,11.82
2023-02-16T20:30:56.936Z,12.08
2023-02-16T20:35:56.855Z,11.87
2023-02-16T20:40:56.832Z,11.87
2023-02-16T20:45:56.821Z,11.82
2023-02-16T20:50:56.781Z,11.87
2023-02-16T20:55:56.742Z,12.03
2023-02-16T21:00:56.824Z,11.82
2023-02-16T21:05:56.704Z,11.87
2023-02-16T21:10:56.657Z,11.66
2023-02-16T21:15:56.633Z,12.08
2023-02-16T21:20:56.554Z,12.57
2023-02-16T21:25:56.522Z,12.14
2023-02-16T21:30:56.534Z,12.51
2023-02-16T21:35:56.466Z,12.08
2023-02-16T21:40:56.437Z,11.87
2023-02-16T21:45:56.411Z,11.87
2023-02-16T21:50:56.373Z,11.71
2023-02-16T21:55:56.332Z,11.76
2023-02-16T22:00:56.338Z,11.60
2023-02-16T22:05:56.283Z,11.60
2023-02-16T22:10:56.264Z,11.87
2023-02-16T22:15:56.226Z,11.82
2023-02-16T22:20:56.187Z,11.66
2023-02-16T22:25:56.161Z,11.60
2023-02-16T22:30:56.162Z,12.03
2023-02-16T22:35:56.090Z,11.71
2023-02-16T22:40:56.072Z,12.03
2023-02-16T22:45:56.087Z,11.87
2023-02-16T22:50:56.032Z,11.82
2023-02-16T22:55:55.994Z,11.92
2023-02-16T23:00:56.010Z,11.82
2023-02-16T23:05:55.955Z,11.82
2023-02-16T23:10:55.923Z,12.03
2023-02-16T23:15:55.898Z,12.03
2023-02-16T23:20:55.867Z,11.87
2023-02-16T23:25:55.837Z,11.82
2023-02-16T23:30:55.909Z,11.92
2023-02-16T23:35:55.764Z,11.87
2023-02-16T23:40:55.730Z,11.76
2023-02-16T23:45:55.765Z,11.98
2023-02-16T23:50:55.699Z,11.92
2023-02-16T23:55:55.640Z,11.82
